createdAt,value
2023-04-18T00:02:07.115Z,97279.31
2023-04-18T00:04:35.656Z,97281.56
2023-04-18T00:07:04.058Z,97287.38
2023-04-18T00:09:32.456Z,97279.28
2023-04-18T00:12:01.689Z,97283.72
2023-04-18T00:14:31.346Z,97278.06
2023-04-18T00:17:00.102Z,97281.66
2023-04-18T00:19:28.701Z,97275.44
2023-04-18T00:21:58.093Z,97274.41
2023-04-18T00:24:26.522Z,97272.78
2023-04-18T00:26:54.757Z,97265.75
2023-04-18T00:29:23.235Z,97269.56
2023-04-18T00:31:54.983Z,97268.22
2023-04-18T00:34:23.674Z,97272.34
2023-04-18T00:36:54.743Z,97269.41
2023-04-18T00:39:23.185Z,97265.13
2023-04-18T00:41:51.471Z,97263.53
2023-04-18T00:44:19.948Z,97262.75
2023-04-18T00:46:48.349Z,97267.06
2023-04-18T00:49:18.316Z,97264.34
2023-04-18T00:51:48.019Z,97265.78
2023-04-18T00:54:19.328Z,97271.50
2023-04-18T00:56:48.229Z,97275.03
2023-04-18T00:59:17.111Z,97274.78
2023-04-18T01:01:45.588Z,97258.28
2023-04-18T01:04:14.712Z,97271.84
2023-04-18T01:06:45.740Z,97271.00
2023-04-18T01:09:16.015Z,97262.66
2023-04-18T01:11:46.178Z,97263.16
2023-04-18T01:14:14.958Z,97263.44
2023-04-18T01:16:44.098Z,97254.00
2023-04-18T01:19:13.311Z,97253.75
2023-04-18T01:21:44.791Z,97257.50
2023-04-18T01:24:18.307Z,97251.00
2023-04-18T01:26:48.940Z,97255.59
2023-04-18T01:29:17.391Z,97255.63
2023-04-18T01:31:46.092Z,97257.59
2023-04-18T01:34:17.799Z,97261.72
2023-04-18T01:36:47.411Z,97260.16
2023-04-18T01:39:18.380Z,97260.94
2023-04-18T01:41:47.270Z,97256.88
2023-04-18T01:44:15.764Z,97257.44
2023-04-18T01:46:47.181Z,97259.97
2023-04-18T01:49:16.009Z,97254.31
2023-04-18T01:51:44.806Z,97260.28
2023-04-18T01:54:13.676Z,97256.50
2023-04-18T01:56:43.596Z,97254.63
2023-04-18T01:59:11.894Z,97247.09
2023-04-18T02:01:40.207Z,97255.78
2023-04-18T02:04:08.611Z,97248.97
2023-04-18T02:06:37.348Z,97244.13
2023-04-18T02:09:06.005Z,97235.88
2023-04-18T02:11:34.642Z,97238.09
2023-04-18T02:14:06.524Z,97238.09
2023-04-18T02:16:35.168Z,97239.50
2023-04-18T02:19:04.353Z,97237.81
2023-04-18T02:21:32.774Z,97242.16
2023-04-18T02:24:02.079Z,97238.09
2023-04-18T02:26:30.322Z,97248.84
2023-04-18T02:28:59.742Z,97246.41
2023-04-18T02:31:32.218Z,97246.16
2023-04-18T02:34:00.555Z,97242.97
2023-04-18T02:36:28.822Z,97244.88
2023-04-18T02:38:57.084Z,97251.66
2023-04-18T02:41:25.584Z,97241.41
2023-04-18T02:43:56.213Z,97241.69
2023-04-18T02:46:25.405Z,97241.69
2023-04-18T02:48:55.914Z,97243.31
2023-04-18T02:51:28.118Z,97247.72
2023-04-18T02:53:58.546Z,97253.13
2023-04-18T02:56:32.174Z,97253.41
2023-04-18T02:59:36.212Z,97248.53
2023-04-18T03:02:24.766Z,97247.44
2023-04-18T03:04:59.099Z,97249.09
2023-04-18T03:07:27.555Z,97249.06
2023-04-18T03:09:55.924Z,97252.84
2023-04-18T03:12:28.785Z,97249.03
2023-04-18T03:14:57.338Z,97256.69
2023-04-18T03:17:25.908Z,97251.78
2023-04-18T03:19:54.880Z,97245.84
2023-04-18T03:22:24.680Z,97251.53
2023-04-18T03:25:00.041Z,97253.47
2023-04-18T03:27:51.805Z,97246.44
2023-04-18T03:30:22.423Z,97251.28
2023-04-18T03:32:56.128Z,97244.78
2023-04-18T03:35:24.833Z,97244.22
2023-04-18T03:37:55.002Z,97245.28
2023-04-18T03:40:30.013Z,97238.28
2023-04-18T03:43:03.809Z,97239.91
2023-04-18T03:45:33.126Z,97245.09
2023-04-18T03:48:01.739Z,97246.75
2023-04-18T03:50:32.380Z,97236.72
2023-04-18T03:53:03.126Z,97245.94
2023-04-18T03:55:35.059Z,97238.63
2023-04-18T03:58:04.498Z,97240.47
2023-04-18T04:00:33.192Z,97247.00
2023-04-18T04:03:07.968Z,97246.44
2023-04-18T04:05:36.732Z,97248.31
2023-04-18T04:08:07.091Z,97245.34
2023-04-18T04:10:36.194Z,97251.81
2023-04-18T04:13:05.416Z,97260.50
2023-04-18T04:15:39.002Z,97259.94
2023-04-18T04:18:09.741Z,97254.56
2023-04-18T04:20:41.317Z,97253.72
2023-04-18T04:23:17.032Z,97259.72
2023-04-18T04:25:48.147Z,97256.97
2023-04-18T04:28:28.807Z,97259.44
2023-04-18T04:31:03.318Z,97259.16
2023-04-18T04:33:34.072Z,97259.44
2023-04-18T04:36:06.662Z,97266.69
2023-04-18T04:38:38.275Z,97269.13
2023-04-18T04:41:07.785Z,97271.28
2023-04-18T04:43:36.612Z,97265.84
2023-04-18T04:46:07.774Z,97273.94
2023-04-18T04:48:36.610Z,97273.94
2023-04-18T04:51:05.613Z,97277.44
2023-04-18T04:53:34.119Z,97273.88
2023-04-18T04:56:06.070Z,97279.53
2023-04-18T04:58:35.628Z,97274.66
2023-04-18T05:01:24.466Z,97283.00
2023-04-18T05:03:53.562Z,97272.91
2023-04-18T05:06:22.775Z,97286.66
2023-04-18T05:08:52.017Z,97280.09
2023-04-18T05:11:22.055Z,97287.69
2023-04-18T05:13:50.796Z,97287.63
2023-04-18T05:16:19.274Z,97283.25
2023-04-18T05:18:47.757Z,97282.09
2023-04-18T05:21:16.093Z,97293.69
2023-04-18T05:23:44.365Z,97292.25
2023-04-18T05:26:12.921Z,97305.72
2023-04-18T05:28:42.616Z,97295.06
2023-04-18T05:31:10.937Z,97292.00
2023-04-18T05:33:39.629Z,97302.97
2023-04-18T05:36:08.847Z,97292.50
2023-04-18T05:38:37.473Z,97293.94
2023-04-18T05:41:06.160Z,97300.78
2023-04-18T05:43:34.456Z,97299.81
2023-04-18T05:46:04.160Z,97294.47
2023-04-18T05:48:32.501Z,97300.53
2023-04-18T05:51:00.982Z,97300.44
2023-04-18T05:53:29.295Z,97303.91
2023-04-18T05:55:59.052Z,97300.47
2023-04-18T05:58:28.808Z,97307.97
2023-04-18T06:00:57.389Z,97302.84
2023-04-18T06:03:27.335Z,97305.81
2023-04-18T06:05:56.638Z,97306.72
2023-04-18T06:08:25.035Z,97311.97
2023-04-18T06:10:53.270Z,97321.66
2023-04-18T06:13:21.496Z,97319.34
2023-04-18T06:15:50.086Z,97319.84
2023-04-18T06:18:18.593Z,97320.28
2023-04-18T06:20:49.515Z,97323.06
2023-04-18T06:23:17.915Z,97325.25
2023-04-18T06:25:46.319Z,97324.47
2023-04-18T06:28:14.601Z,97324.38
2023-04-18T06:30:43.017Z,97333.13
2023-04-18T06:33:11.461Z,97333.72
2023-04-18T06:35:40.058Z,97332.94
2023-04-18T06:38:11.595Z,97338.03
2023-04-18T06:40:40.081Z,97324.41
2023-04-18T06:43:08.504Z,97330.28
2023-04-18T06:45:37.196Z,97326.44
2023-04-18T06:48:06.334Z,97328.78
2023-04-18T06:50:34.820Z,97328.25
2023-04-18T06:53:03.200Z,97327.09
2023-04-18T06:55:33.067Z,97337.16
2023-04-18T06:58:01.712Z,97335.34
2023-04-18T07:00:30.132Z,97329.69
2023-04-18T07:02:58.585Z,97330.97
2023-04-18T07:05:26.980Z,97332.69
2023-04-18T07:07:55.227Z,97344.28
2023-04-18T07:10:23.744Z,97339.84
2023-04-18T07:12:53.345Z,97332.34
2023-04-18T07:15:21.676Z,97339.44
2023-04-18T07:17:50.044Z,97343.97
2023-04-18T07:20:18.484Z,97333.31
2023-04-18T07:22:48.093Z,97344.03
2023-04-18T07:25:16.631Z,97341.81
2023-04-18T07:27:44.970Z,97341.38
2023-04-18T07:30:15.535Z,97346.81
2023-04-18T07:32:43.861Z,97345.25
2023-04-18T07:35:13.031Z,97342.53
2023-04-18T07:37:41.393Z,97351.38
2023-04-18T07:40:11.537Z,97353.44
2023-04-18T07:42:40.400Z,97347.53
2023-04-18T07:45:09.481Z,97352.13
2023-04-18T07:47:39.140Z,97349.00
2023-04-18T07:50:10.361Z,97349.72
2023-04-18T07:52:39.575Z,97349.16
2023-04-18T07:55:09.678Z,97356.50
2023-04-18T07:57:38.489Z,97360.31
2023-04-18T08:00:09.558Z,97350.97
2023-04-18T08:02:45.187Z,97358.38
2023-04-18T08:05:14.311Z,97352.97
2023-04-18T08:07:43.452Z,97354.81
2023-04-18T08:10:12.633Z,97362.28
2023-04-18T08:12:41.667Z,97368.00
2023-04-18T08:15:11.422Z,97355.13
2023-04-18T08:17:42.681Z,97359.44
2023-04-18T08:20:14.572Z,97352.66
2023-04-18T08:22:57.696Z,97360.53
2023-04-18T08:25:32.515Z,97361.97
2023-04-18T08:28:01.374Z,97362.47
2023-04-18T08:30:30.390Z,97369.53
2023-04-18T08:33:00.244Z,97355.84
2023-04-18T08:35:30.231Z,97364.06
2023-04-18T08:37:58.911Z,97361.44
2023-04-18T08:40:27.577Z,97353.69
2023-04-18T08:42:58.650Z,97359.44
2023-04-18T08:45:28.764Z,97360.84
2023-04-18T08:48:01.455Z,97373.22
2023-04-18T08:50:32.453Z,97377.75
2023-04-18T08:53:02.403Z,97374.34
2023-04-18T08:55:33.629Z,97373.41
2023-04-18T08:58:02.796Z,97375.38
2023-04-18T09:00:31.495Z,97385.81
2023-04-18T09:03:00.425Z,97385.50
2023-04-18T09:05:30.625Z,97381.31
2023-04-18T09:07:59.304Z,97391.63
2023-04-18T09:10:30.957Z,97383.06
2023-04-18T09:13:01.081Z,97390.09
2023-04-18T09:15:30.487Z,97383.00
2023-04-18T09:18:02.462Z,97389.22
2023-04-18T09:20:37.745Z,97394.69
2023-04-18T09:23:11.569Z,97384.53
2023-04-18T09:25:46.866Z,97379.56
2023-04-18T09:28:27.184Z,97384.50
2023-04-18T09:30:57.421Z,97384.72
2023-04-18T09:33:32.575Z,97387.03
2023-04-18T09:36:19.348Z,97389.44
2023-04-18T09:38:48.223Z,97388.53
2023-04-18T09:41:19.181Z,97380.97
2023-04-18T09:43:49.574Z,97388.94
2023-04-18T09:46:18.622Z,97393.34
2023-04-18T09:48:48.107Z,97388.28
2023-04-18T09:51:18.003Z,97389.25
2023-04-18T09:53:47.752Z,97387.91
2023-04-18T09:56:25.019Z,97384.38
2023-04-18T09:58:58.237Z,97386.34
2023-04-18T10:01:29.654Z,97390.47
2023-04-18T10:04:03.416Z,97379.88
2023-04-18T10:06:39.879Z,97379.66
2023-04-18T10:09:10.923Z,97376.44
2023-04-18T10:11:40.226Z,97378.88
2023-04-18T10:14:12.827Z,97380.59
2023-04-18T10:16:43.326Z,97380.84
2023-04-18T10:19:25.862Z,97376.03
2023-04-18T10:21:57.955Z,97381.09
2023-04-18T10:24:49.540Z,97372.09
2023-04-18T10:27:18.851Z,97383.19
2023-04-18T10:29:52.066Z,97388.63
2023-04-18T10:32:23.734Z,97378.38
2023-04-18T10:34:54.251Z,97381.75
2023-04-18T10:37:23.937Z,97376.75
2023-04-18T10:40:00.412Z,97377.66
2023-04-18T10:43:02.473Z,97377.38
2023-04-18T10:45:36.510Z,97375.78
2023-04-18T10:48:25.517Z,97373.34
2023-04-18T10:51:15.901Z,97375.03
2023-04-18T10:53:53.833Z,97373.72
2023-04-18T10:56:22.610Z,97369.38
2023-04-18T10:58:53.387Z,97377.91
2023-04-18T11:01:31.202Z,97370.13
2023-04-18T11:04:01.573Z,97362.13
2023-04-18T11:06:31.402Z,97359.50
2023-04-18T11:09:14.808Z,97356.31
2023-04-18T11:11:44.339Z,97360.69
2023-04-18T11:14:13.331Z,97356.25
2023-04-18T11:16:42.296Z,97361.72
2023-04-18T11:19:23.313Z,97351.00
2023-04-18T11:21:52.794Z,97352.75
2023-04-18T11:24:26.080Z,97345.78
2023-04-18T11:26:56.416Z,97356.91
2023-04-18T11:29:24.864Z,97347.56
2023-04-18T11:31:56.840Z,97347.78
2023-04-18T11:34:31.430Z,97352.69
2023-04-18T11:37:00.336Z,97349.16
2023-04-18T11:39:30.148Z,97351.47
2023-04-18T11:42:01.416Z,97352.56
2023-04-18T11:44:29.975Z,97349.94
2023-04-18T11:46:58.718Z,97361.03
2023-04-18T11:49:28.940Z,97352.69
2023-04-18T11:51:57.816Z,97356.78
2023-04-18T11:54:41.589Z,97361.00
2023-04-18T11:57:22.540Z,97349.28
2023-04-18T11:59:53.138Z,97351.69
2023-04-18T12:02:23.632Z,97351.50
2023-04-18T12:04:57.384Z,97359.25
2023-04-18T12:07:34.794Z,97365.00
2023-04-18T12:10:07.946Z,97359.00
2023-04-18T12:12:37.387Z,97361.06
2023-04-18T12:15:09.204Z,97355.41
2023-04-18T12:17:38.819Z,97354.47
2023-04-18T12:20:10.181Z,97348.78
2023-04-18T12:22:40.511Z,97348.97
2023-04-18T12:25:27.908Z,97350.97
2023-04-18T12:28:00.328Z,97348.25
2023-04-18T12:30:31.412Z,97351.63
2023-04-18T12:33:02.532Z,97349.47
2023-04-18T12:35:32.368Z,97345.41
2023-04-18T12:38:02.489Z,97341.25
2023-04-18T12:40:32.303Z,97343.16
2023-04-18T12:43:02.864Z,97337.28
2023-04-18T12:45:32.285Z,97339.22
2023-04-18T12:48:01.434Z,97338.00
2023-04-18T12:50:30.229Z,97343.03
2023-04-18T12:53:02.110Z,97342.38
2023-04-18T12:55:31.870Z,97335.97
2023-04-18T12:58:00.772Z,97341.25
2023-04-18T13:00:32.432Z,97335.63
2023-04-18T13:03:01.335Z,97350.66
2023-04-18T13:05:33.666Z,97343.31
2023-04-18T13:10:35.689Z,97349.47
2023-04-18T13:13:04.912Z,97336.06
2023-04-18T13:15:34.360Z,97336.06
2023-04-18T13:18:06.641Z,97344.19
2023-04-18T13:20:36.569Z,97341.94
2023-04-18T13:23:05.285Z,97346.66
2023-04-18T13:25:35.354Z,97338.28
2023-04-18T13:28:03.845Z,97335.25
2023-04-18T13:30:32.357Z,97329.31
2023-04-18T13:33:01.231Z,97337.47
2023-04-18T13:35:30.003Z,97336.34
2023-04-18T13:37:58.701Z,97331.06
2023-04-18T13:40:27.325Z,97336.13
2023-04-18T13:42:57.695Z,97339.94
2023-04-18T13:45:26.384Z,97337.06
2023-04-18T13:47:55.055Z,97341.28
2023-04-18T13:50:24.500Z,97340.97
2023-04-18T13:52:54.722Z,97345.13
2023-04-18T13:55:24.196Z,97343.69
2023-04-18T13:57:52.872Z,97343.84
2023-04-18T14:00:23.348Z,97343.53
2023-04-18T14:02:52.276Z,97344.63
2023-04-18T14:05:20.933Z,97346.63
2023-04-18T14:07:49.665Z,97351.13
2023-04-18T14:10:18.209Z,97348.56
2023-04-18T14:12:46.950Z,97349.06
2023-04-18T14:15:15.615Z,97350.97
2023-04-18T14:17:45.866Z,97351.94
2023-04-18T14:20:19.176Z,97351.13
2023-04-18T14:22:47.819Z,97347.56
2023-04-18T14:25:17.063Z,97356.44
2023-04-18T14:27:49.143Z,97349.34
2023-04-18T14:30:17.799Z,97355.47
2023-04-18T14:32:47.837Z,97358.09
2023-04-18T14:35:16.518Z,97345.34
2023-04-18T14:37:45.339Z,97353.09
2023-04-18T14:40:14.306Z,97353.13
2023-04-18T14:42:42.894Z,97351.81
2023-04-18T14:45:12.367Z,97351.19
2023-04-18T14:47:42.109Z,97353.94
2023-04-18T14:50:13.214Z,97353.59
2023-04-18T14:52:42.436Z,97352.28
2023-04-18T14:55:11.532Z,97348.13
2023-04-18T14:57:40.523Z,97352.00
2023-04-18T15:00:12.090Z,97354.41
2023-04-18T15:02:41.037Z,97353.75
2023-04-18T15:05:12.351Z,97349.41
2023-04-18T15:07:42.927Z,97354.25
2023-04-18T15:10:13.015Z,97350.22
2023-04-18T15:12:41.580Z,97355.84
2023-04-18T15:15:10.935Z,97367.94
2023-04-18T15:17:39.661Z,97355.84
2023-04-18T15:20:09.984Z,97355.19
2023-04-18T15:22:40.017Z,97355.84
2023-04-18T15:25:10.215Z,97355.53
2023-04-18T15:27:38.822Z,97356.34
2023-04-18T15:30:10.873Z,97365.38
2023-04-18T15:32:42.010Z,97371.31
2023-04-18T15:35:11.405Z,97365.22
2023-04-18T15:37:41.578Z,97364.06
2023-04-18T15:40:16.064Z,97355.22
2023-04-18T15:42:45.008Z,97367.28
2023-04-18T15:45:13.988Z,97360.69
2023-04-18T15:47:43.081Z,97370.03
2023-04-18T15:50:12.564Z,97369.88
2023-04-18T15:52:42.631Z,97362.13
2023-04-18T15:55:13.038Z,97367.75
2023-04-18T15:57:42.587Z,97371.25
2023-04-18T16:00:15.815Z,97369.47
2023-04-18T16:02:45.483Z,97373.00
2023-04-18T16:05:15.499Z,97382.66
2023-04-18T16:07:45.852Z,97379.25
2023-04-18T16:10:15.297Z,97387.94
2023-04-18T16:12:43.991Z,97378.09
2023-04-18T16:15:13.685Z,97390.47
2023-04-18T16:17:42.190Z,97382.41
2023-04-18T16:20:11.292Z,97389.75
2023-04-18T16:22:39.991Z,97395.22
2023-04-18T16:25:11.211Z,97388.16
2023-04-18T16:27:39.780Z,97399.41
2023-04-18T16:30:10.028Z,97395.22
2023-04-18T16:32:39.149Z,97399.72
2023-04-18T16:35:10.173Z,97399.03
2023-04-18T16:37:39.133Z,97397.44
2023-04-18T16:40:10.867Z,97399.97
2023-04-18T16:42:39.931Z,97409.50
2023-04-18T16:45:09.387Z,97401.47
2023-04-18T16:47:37.755Z,97404.03
2023-04-18T16:50:07.635Z,97403.69
2023-04-18T16:52:36.235Z,97408.00
2023-04-18T16:55:07.658Z,97409.47
2023-04-18T16:57:37.355Z,97402.50
2023-04-18T17:00:07.885Z,97408.78
2023-04-18T17:02:39.630Z,97406.16
2023-04-18T17:05:12.522Z,97414.06
2023-04-18T17:07:41.372Z,97422.56
2023-04-18T17:10:11.315Z,97417.91
2023-04-18T17:12:41.502Z,97422.84
2023-04-18T17:15:11.041Z,97429.41
2023-04-18T17:17:39.690Z,97424.22
2023-04-18T17:20:10.006Z,97419.66
2023-04-18T17:22:38.993Z,97427.47
2023-04-18T17:25:08.354Z,97426.19
2023-04-18T17:27:36.927Z,97428.75
2023-04-18T17:30:08.182Z,97426.50
2023-04-18T17:32:41.955Z,97433.69
2023-04-18T17:35:11.594Z,97430.16
2023-04-18T17:37:40.221Z,97433.63
2023-04-18T17:40:11.615Z,97439.50
2023-04-18T17:42:40.351Z,97434.66
2023-04-18T17:45:11.890Z,97436.41
2023-04-18T17:47:41.139Z,97444.09
2023-04-18T17:50:10.566Z,97436.06
2023-04-18T17:52:39.539Z,97442.38
2023-04-18T17:55:08.875Z,97449.66
2023-04-18T17:57:38.548Z,97444.09
2023-04-18T18:00:11.908Z,97448.25
2023-04-18T18:02:43.819Z,97444.09
2023-04-18T18:05:14.321Z,97447.25
2023-04-18T18:07:47.405Z,97445.44
2023-04-18T18:10:19.965Z,97454.88
2023-04-18T18:12:49.391Z,97451.50
2023-04-18T18:15:20.248Z,97450.50
2023-04-18T18:17:50.498Z,97460.31
2023-04-18T18:20:19.533Z,97452.13
2023-04-18T18:22:48.324Z,97452.22
2023-04-18T18:25:17.385Z,97448.69
2023-04-18T18:27:46.090Z,97460.72
2023-04-18T18:30:14.924Z,97464.56
2023-04-18T18:32:44.922Z,97468.09
2023-04-18T18:35:14.142Z,97471.13
2023-04-18T18:37:42.713Z,97471.13
2023-04-18T18:40:12.046Z,97470.94
2023-04-18T18:42:40.371Z,97476.91
2023-04-18T18:45:10.895Z,97488.22
2023-04-18T18:47:40.300Z,97479.13
2023-04-18T18:50:13.016Z,97484.88
2023-04-18T18:52:43.092Z,97484.16
2023-04-18T18:55:12.473Z,97493.94
2023-04-18T18:57:41.081Z,97486.91
2023-04-18T19:00:12.176Z,97489.09
2023-04-18T19:02:42.042Z,97495.69
2023-04-18T19:05:13.575Z,97490.22
2023-04-18T19:07:42.897Z,97493.56
2023-04-18T19:10:12.130Z,97496.78
2023-04-18T19:12:40.854Z,97498.59
2023-04-18T19:15:11.864Z,97498.00
2023-04-18T19:17:40.375Z,97502.97
2023-04-18T19:20:11.679Z,97498.00
2023-04-18T19:22:40.469Z,97500.94
2023-04-18T19:25:10.379Z,97504.97
2023-04-18T19:27:38.755Z,97498.31
2023-04-18T19:30:08.757Z,97498.09
2023-04-18T19:32:37.737Z,97501.63
2023-04-18T19:35:07.228Z,97503.84
2023-04-18T19:37:37.185Z,97502.47
2023-04-18T19:40:07.419Z,97504.34
2023-04-18T19:42:36.087Z,97503.84
2023-04-18T19:45:05.192Z,97498.22
2023-04-18T19:47:34.007Z,97506.88
2023-04-18T19:50:03.054Z,97498.31
2023-04-18T19:52:31.610Z,97503.16
2023-04-18T19:55:01.688Z,97505.59
2023-04-18T19:57:30.276Z,97502.13
2023-04-18T19:59:59.147Z,97493.75
2023-04-18T20:02:27.510Z,97498.59
2023-04-18T20:04:56.313Z,97501.03
2023-04-18T20:07:26.271Z,97506.28
2023-04-18T20:09:55.187Z,97502.13
2023-04-18T20:12:25.257Z,97502.63
2023-04-18T20:14:55.747Z,97509.81
2023-04-18T20:17:24.851Z,97509.03
2023-04-18T20:19:53.468Z,97507.19
2023-04-18T20:22:22.082Z,97510.22
2023-04-18T20:24:51.292Z,97518.69
2023-04-18T20:27:20.580Z,97513.25
2023-04-18T20:29:50.654Z,97511.91
2023-04-18T20:32:19.326Z,97503.25
2023-04-18T20:34:47.963Z,97509.88
2023-04-18T20:37:19.719Z,97510.63
2023-04-18T20:39:48.474Z,97508.09
2023-04-18T20:42:17.481Z,97510.03
2023-04-18T20:44:46.973Z,97508.88
2023-04-18T20:47:17.765Z,97501.91
2023-04-18T20:49:46.338Z,97503.53
2023-04-18T20:52:15.417Z,97506.38
2023-04-18T20:54:44.021Z,97503.53
2023-04-18T20:57:12.596Z,97503.03
2023-04-18T20:59:41.318Z,97506.97
2023-04-18T21:02:10.285Z,97498.78
2023-04-18T21:04:40.713Z,97495.03
2023-04-18T21:07:09.711Z,97491.78
2023-04-18T21:09:38.558Z,97493.41
2023-04-18T21:12:07.715Z,97485.25
2023-04-18T21:14:36.579Z,97488.47
2023-04-18T21:17:05.298Z,97487.66
2023-04-18T21:19:34.218Z,97487.16
2023-04-18T21:22:04.343Z,97489.06
2023-04-18T21:24:33.310Z,97495.13
2023-04-18T21:27:02.308Z,97482.31
2023-04-18T21:29:30.999Z,97497.84
2023-04-18T21:31:59.692Z,97496.53
2023-04-18T21:34:28.860Z,97491.59
2023-04-18T21:36:57.921Z,97491.28
2023-04-18T21:39:28.926Z,97486.13
2023-04-18T21:41:57.727Z,97487.53
2023-04-18T21:44:26.276Z,97493.63
2023-04-18T21:46:54.857Z,97491.69
2023-04-18T21:49:23.734Z,97491.97
2023-04-18T21:51:52.098Z,97493.63
2023-04-18T21:54:20.967Z,97488.22
2023-04-18T21:56:51.105Z,97480.97
2023-04-18T21:59:19.822Z,97488.63
2023-04-18T22:01:48.529Z,97491.72
2023-04-18T22:04:22.494Z,97488.09
2023-04-18T22:06:54.181Z,97487.22
2023-04-18T22:09:23.471Z,97490.38
2023-04-18T22:11:56.973Z,97487.25
2023-04-18T22:14:26.013Z,97484.69
2023-04-18T22:16:54.778Z,97477.97
2023-04-18T22:19:24.766Z,97483.94
2023-04-18T22:21:53.548Z,97482.31
2023-04-18T22:24:22.189Z,97483.03
2023-04-18T22:26:52.262Z,97477.53
2023-04-18T22:29:21.308Z,97487.31
2023-04-18T22:31:49.978Z,97480.25
2023-04-18T22:34:18.532Z,97482.38
2023-04-18T22:36:47.172Z,97485.31
2023-04-18T22:39:15.819Z,97474.81
2023-04-18T22:41:44.502Z,97479.22
2023-04-18T22:44:14.862Z,97476.34
2023-04-18T22:46:44.545Z,97481.44
2023-04-18T22:49:13.350Z,97481.56
2023-04-18T22:51:42.239Z,97481.41
2023-04-18T22:54:10.891Z,97479.50
2023-04-18T22:56:39.553Z,97480.63
2023-04-18T22:59:08.425Z,97487.06
2023-04-18T23:01:38.580Z,97473.84
2023-04-18T23:04:07.479Z,97471.13
2023-04-18T23:06:36.853Z,97476.78
2023-04-18T23:09:07.728Z,97469.69
2023-04-18T23:11:36.065Z,97471.72
2023-04-18T23:14:04.923Z,97482.03
2023-04-18T23:16:34.232Z,97472.66
2023-04-18T23:19:05.231Z,97475.09
2023-04-18T23:21:34.778Z,97475.84
2023-04-18T23:24:03.509Z,97473.63
2023-04-18T23:26:31.821Z,97470.00
2023-04-18T23:29:00.426Z,97461.34
2023-04-18T23:31:29.361Z,97464.56
2023-04-18T23:33:59.640Z,97461.53
2023-04-18T23:36:29.756Z,97466.63
2023-04-18T23:38:58.170Z,97465.56
2023-04-18T23:41:26.841Z,97460.66
2023-04-18T23:43:55.568Z,97459.63
2023-04-18T23:46:24.256Z,97464.78
2023-04-18T23:48:53.243Z,97462.34
2023-04-18T23:51:21.802Z,97462.34
2023-04-18T23:53:51.880Z,97467.00
2023-04-18T23:56:21.802Z,97456.91
2023-04-18T23:58:50.392Z,97450.66
